createdAt,value
2022-08-27T00:01:42.515Z,99088.47
2022-08-27T00:04:10.617Z,99096.16
2022-08-27T00:06:38.678Z,99095.06
2022-08-27T00:09:06.832Z,99100.06
2022-08-27T00:11:34.788Z,99103.34
2022-08-27T00:14:03.006Z,99108.59
2022-08-27T00:16:31.031Z,99107.81
2022-08-27T00:19:00.711Z,99100.44
2022-08-27T00:21:28.691Z,99110.91
2022-08-27T00:23:56.724Z,99114.25
2022-08-27T00:26:24.738Z,99120.81
2022-08-27T00:28:52.858Z,99114.81
2022-08-27T00:31:27.147Z,99120.28
2022-08-27T00:33:55.816Z,99113.97
2022-08-27T00:36:25.351Z,99126.34
2022-08-27T00:38:53.885Z,99127.72
2022-08-27T00:41:22.282Z,99123.63
2022-08-27T00:43:52.529Z,99125.81
2022-08-27T00:46:23.658Z,99127.47
2022-08-27T00:48:52.881Z,99134.00
2022-08-27T00:51:22.248Z,99131.28
2022-08-27T00:53:51.922Z,99130.16
2022-08-27T00:56:21.525Z,99129.63
2022-08-27T00:58:51.778Z,99129.34
2022-08-27T01:01:26.215Z,99134.56
2022-08-27T01:03:56.525Z,99129.03
2022-08-27T01:06:25.444Z,99136.72
2022-08-27T01:08:57.319Z,99136.72
2022-08-27T01:11:25.989Z,99126.06
2022-08-27T01:14:00.030Z,99127.97
2022-08-27T01:16:31.332Z,99130.72
2022-08-27T01:19:00.977Z,99134.53
2022-08-27T01:21:31.683Z,99132.88
2022-08-27T01:24:04.383Z,99124.09
2022-08-27T01:26:33.789Z,99127.38
2022-08-27T01:29:01.757Z,99130.13
2022-08-27T01:31:29.906Z,99139.78
2022-08-27T01:33:59.262Z,99134.06
2022-08-27T01:36:27.358Z,99137.09
2022-08-27T01:38:55.907Z,99137.41
2022-08-27T01:41:25.569Z,99144.00
2022-08-27T01:43:54.938Z,99134.41
2022-08-27T01:46:23.239Z,99137.41
2022-08-27T01:48:51.252Z,99133.56
2022-08-27T01:51:19.617Z,99134.66
2022-08-27T01:53:47.746Z,99134.94
2022-08-27T01:56:15.765Z,99135.47
2022-08-27T01:58:43.817Z,99134.66
2022-08-27T02:01:14.065Z,99122.59
2022-08-27T02:03:42.267Z,99131.38
2022-08-27T02:06:11.445Z,99127.53
2022-08-27T02:08:39.475Z,99129.72
2022-08-27T02:11:08.332Z,99130.25
2022-08-27T02:13:36.613Z,99128.59
2022-08-27T02:16:05.329Z,99132.72
2022-08-27T02:18:37.073Z,99130.00
2022-08-27T02:21:05.420Z,99137.09
2022-08-27T02:23:33.405Z,99133.53
2022-08-27T02:26:01.608Z,99131.63
2022-08-27T02:28:29.627Z,99133.50
2022-08-27T02:30:57.631Z,99132.41
2022-08-27T02:33:26.691Z,99138.94
2022-08-27T02:35:56.099Z,99129.59
2022-08-27T02:38:25.737Z,99142.75
2022-08-27T02:40:54.643Z,99141.66
2022-08-27T02:43:24.956Z,99142.50
2022-08-27T02:45:53.705Z,99135.09
2022-08-27T02:48:21.806Z,99145.50
2022-08-27T02:50:49.826Z,99146.03
2022-08-27T02:53:19.704Z,99149.31
2022-08-27T02:55:47.867Z,99146.03
2022-08-27T02:58:17.002Z,99137.81
2022-08-27T03:00:45.266Z,99142.72
2022-08-27T03:03:13.317Z,99139.97
2022-08-27T03:05:41.362Z,99142.72
2022-08-27T03:08:10.090Z,99143.53
2022-08-27T03:10:40.104Z,99145.75
2022-08-27T03:13:08.204Z,99141.06
2022-08-27T03:15:36.185Z,99146.00
2022-08-27T03:18:18.350Z,99147.63
2022-08-27T03:20:47.675Z,99144.34
2022-08-27T03:23:16.163Z,99137.19
2022-08-27T03:25:46.567Z,99149.53
2022-08-27T03:28:22.592Z,99147.63
2022-08-27T03:30:52.260Z,99153.09
2022-08-27T03:33:20.489Z,99134.16
2022-08-27T03:35:51.666Z,99154.19
2022-08-27T03:38:20.139Z,99158.31
2022-08-27T03:40:50.352Z,99161.84
2022-08-27T03:43:18.498Z,99153.09
2022-08-27T03:45:52.932Z,99161.88
2022-08-27T03:48:30.504Z,99155.59
2022-08-27T03:50:58.500Z,99165.75
2022-08-27T03:53:26.655Z,99165.22
2022-08-27T03:55:56.052Z,99165.28
2022-08-27T03:58:24.076Z,99167.47
2022-08-27T04:00:52.092Z,99166.69
2022-08-27T04:03:20.057Z,99169.72
2022-08-27T04:05:52.807Z,99175.22
2022-08-27T04:08:21.696Z,99174.66
2022-08-27T04:10:50.003Z,99177.13
2022-08-27T04:13:19.412Z,99179.91
2022-08-27T04:15:48.269Z,99180.19
2022-08-27T04:18:16.769Z,99185.38
2022-08-27T04:20:44.889Z,99182.88
2022-08-27T04:23:13.125Z,99183.38
2022-08-27T04:25:41.501Z,99182.00
2022-08-27T04:28:09.722Z,99189.38
2022-08-27T04:30:41.502Z,99195.94
2022-08-27T04:33:09.509Z,99187.13
2022-08-27T04:35:37.904Z,99187.63
2022-08-27T04:38:05.911Z,99190.75
2022-08-27T04:40:47.981Z,99195.44
2022-08-27T04:43:17.703Z,99204.75
2022-08-27T04:45:48.076Z,99206.38
2022-08-27T04:48:17.161Z,99193.69
2022-08-27T04:50:46.293Z,99205.50
2022-08-27T04:53:14.686Z,99210.56
2022-08-27T04:55:44.392Z,99213.13
2022-08-27T04:58:12.491Z,99213.31
2022-08-27T05:00:44.391Z,99210.16
2022-08-27T05:03:14.096Z,99217.25
2022-08-27T05:05:42.892Z,99221.59
2022-08-27T05:08:13.176Z,99217.50
2022-08-27T05:10:42.507Z,99223.78
2022-08-27T05:13:10.573Z,99225.09
2022-08-27T05:15:38.608Z,99222.44
2022-08-27T05:18:07.137Z,99224.66
2022-08-27T05:20:42.314Z,99230.16
2022-08-27T05:23:10.914Z,99229.09
2022-08-27T05:25:39.543Z,99230.13
2022-08-27T05:28:07.590Z,99236.13
2022-08-27T05:30:38.675Z,99241.34
2022-08-27T05:33:07.604Z,99234.47
2022-08-27T05:35:42.412Z,99238.69
2022-08-27T05:38:10.659Z,99243.69
2022-08-27T05:40:38.870Z,99244.59
2022-08-27T05:43:07.039Z,99250.03
2022-08-27T05:45:35.184Z,99248.03
2022-08-27T05:48:03.549Z,99252.34
2022-08-27T05:50:31.613Z,99246.84
2022-08-27T05:53:00.977Z,99254.78
2022-08-27T05:55:29.060Z,99258.50
2022-08-27T05:57:57.035Z,99256.25
2022-08-27T06:00:42.462Z,99264.44
2022-08-27T06:03:11.860Z,99268.47
2022-08-27T06:05:40.011Z,99271.06
2022-08-27T06:08:09.508Z,99278.69
2022-08-27T06:10:41.134Z,99278.19
2022-08-27T06:13:09.147Z,99269.91
2022-08-27T06:15:37.291Z,99274.91
2022-08-27T06:18:05.558Z,99268.84
2022-08-27T06:20:33.650Z,99280.25
2022-08-27T06:23:01.666Z,99273.50
2022-08-27T06:25:32.317Z,99275.63
2022-08-27T06:28:02.930Z,99280.38
2022-08-27T06:30:30.944Z,99273.34
2022-08-27T06:32:59.180Z,99268.72
2022-08-27T06:35:30.137Z,99276.53
2022-08-27T06:38:00.382Z,99277.91
2022-08-27T06:40:28.473Z,99280.31
2022-08-27T06:42:57.946Z,99277.06
2022-08-27T06:45:25.979Z,99281.28
2022-08-27T06:47:55.772Z,99287.50
2022-08-27T06:50:27.166Z,99284.34
2022-08-27T06:52:55.512Z,99289.47
2022-08-27T06:55:23.593Z,99285.66
2022-08-27T06:57:51.563Z,99290.00
2022-08-27T07:00:22.271Z,99290.03
2022-08-27T07:02:51.428Z,99293.53
2022-08-27T07:05:19.666Z,99293.97
2022-08-27T07:07:48.903Z,99297.50
2022-08-27T07:10:17.042Z,99299.44
2022-08-27T07:12:45.006Z,99286.66
2022-08-27T07:15:13.718Z,99292.13
2022-08-27T07:17:44.753Z,99292.84
2022-08-27T07:20:12.827Z,99288.06
2022-08-27T07:22:40.881Z,99293.47
2022-08-27T07:25:10.907Z,99290.34
2022-08-27T07:27:39.288Z,99295.25
2022-08-27T07:30:08.672Z,99294.13
2022-08-27T07:32:36.777Z,99288.31
2022-08-27T07:35:09.498Z,99283.09
2022-08-27T07:37:37.575Z,99291.25
2022-08-27T07:40:06.507Z,99288.94
2022-08-27T07:42:51.901Z,99285.69
2022-08-27T07:45:19.949Z,99288.63
2022-08-27T07:47:47.916Z,99293.88
2022-08-27T07:50:17.525Z,99283.78
2022-08-27T07:52:45.492Z,99288.81
2022-08-27T07:55:13.567Z,99290.75
2022-08-27T07:57:42.151Z,99291.03
2022-08-27T08:00:11.142Z,99289.41
2022-08-27T08:02:39.291Z,99292.66
2022-08-27T08:05:07.980Z,99290.53
2022-08-27T08:07:38.524Z,99295.38
2022-08-27T08:10:07.828Z,99293.13
2022-08-27T08:12:36.854Z,99287.22
2022-08-27T08:15:05.252Z,99292.38
2022-08-27T08:17:34.017Z,99288.28
2022-08-27T08:20:21.459Z,99289.72
2022-08-27T08:22:51.429Z,99295.94
2022-08-27T08:25:19.637Z,99294.16
2022-08-27T08:27:48.206Z,99292.31
2022-08-27T08:30:16.189Z,99296.41
2022-08-27T08:32:44.656Z,99288.06
2022-08-27T08:35:12.845Z,99290.69
2022-08-27T08:37:40.851Z,99285.78
2022-08-27T08:40:11.756Z,99295.22
2022-08-27T08:42:42.325Z,99286.56
2022-08-27T08:45:16.448Z,99283.84
2022-08-27T08:47:46.378Z,99285.47
2022-08-27T08:50:19.949Z,99287.09
2022-08-27T08:52:52.083Z,99287.81
2022-08-27T08:55:31.959Z,99284.19
2022-08-27T08:58:10.934Z,99292.41
2022-08-27T09:00:40.562Z,99283.47
2022-08-27T09:03:08.690Z,99284.97
2022-08-27T09:05:37.352Z,99279.19
2022-08-27T09:08:32.100Z,99281.50
2022-08-27T09:11:00.908Z,99279.13
2022-08-27T09:13:31.019Z,99279.25
2022-08-27T09:16:01.111Z,99276.53
2022-08-27T09:18:29.430Z,99285.38
2022-08-27T09:21:08.816Z,99283.56
2022-08-27T09:23:41.170Z,99288.47
2022-08-27T09:26:20.583Z,99282.69
2022-08-27T09:29:08.138Z,99285.91
2022-08-27T09:31:37.338Z,99286.28
2022-08-27T09:34:06.210Z,99276.03
2022-08-27T09:36:34.235Z,99283.13
2022-08-27T09:39:05.487Z,99283.34
2022-08-27T09:41:39.080Z,99286.97
2022-08-27T09:44:10.407Z,99277.19
2022-08-27T09:46:38.425Z,99271.97
2022-08-27T09:49:11.722Z,99279.19
2022-08-27T09:51:41.143Z,99275.69
2022-08-27T09:54:09.296Z,99273.25
2022-08-27T09:56:41.344Z,99261.44
2022-08-27T09:59:10.251Z,99271.88
2022-08-27T10:01:39.703Z,99278.69
2022-08-27T10:04:09.945Z,99280.06
2022-08-27T10:06:38.563Z,99280.53
2022-08-27T10:09:09.908Z,99285.91
2022-08-27T10:11:41.538Z,99281.44
2022-08-27T10:14:13.926Z,99283.97
2022-08-27T10:16:47.774Z,99290.44
2022-08-27T10:19:20.088Z,99280.34
2022-08-27T10:21:50.335Z,99277.03
2022-08-27T10:24:22.786Z,99274.63
2022-08-27T10:26:53.691Z,99269.94
2022-08-27T10:29:26.694Z,99275.88
2022-08-27T10:32:01.426Z,99271.06
2022-08-27T10:34:33.561Z,99267.75
2022-08-27T10:37:11.710Z,99262.47
2022-08-27T10:39:55.579Z,99267.31
2022-08-27T10:42:27.824Z,99264.53
2022-08-27T10:45:05.333Z,99266.03
2022-08-27T10:47:56.768Z,99255.88
2022-08-27T10:50:29.095Z,99248.06
2022-08-27T10:53:01.004Z,99257.28
2022-08-27T10:55:31.919Z,99258.09
2022-08-27T10:58:18.648Z,99256.81
2022-08-27T11:00:50.229Z,99254.91
2022-08-27T11:03:22.126Z,99251.88
2022-08-27T11:05:51.262Z,99259.25
2022-08-27T11:08:21.073Z,99251.34
2022-08-27T11:10:50.440Z,99253.16
2022-08-27T11:13:21.883Z,99248.13
2022-08-27T11:15:52.162Z,99253.78
2022-08-27T11:18:21.959Z,99255.41
2022-08-27T11:20:54.419Z,99249.22
2022-08-27T11:23:24.810Z,99252.25
2022-08-27T11:25:55.803Z,99248.00
2022-08-27T11:28:32.036Z,99254.69
2022-08-27T11:31:02.379Z,99258.13
2022-08-27T11:33:33.913Z,99256.97
2022-08-27T11:36:18.444Z,99253.41
2022-08-27T11:38:50.040Z,99248.50
2022-08-27T11:41:29.403Z,99244.47
2022-08-27T11:44:11.711Z,99235.75
2022-08-27T11:46:44.048Z,99229.75
2022-08-27T11:49:12.134Z,99245.72
2022-08-27T11:51:40.887Z,98600.09
2022-08-27T11:54:10.753Z,99235.31
2022-08-27T11:56:41.475Z,99246.75
2022-08-27T11:59:21.648Z,99239.88
2022-08-27T12:01:49.884Z,99243.19
2022-08-27T12:04:33.795Z,99243.38
2022-08-27T12:07:03.558Z,99241.78
2022-08-27T12:09:41.702Z,99234.38
2022-08-27T12:12:15.682Z,99215.06
2022-08-27T12:14:47.232Z,99229.09
2022-08-27T12:17:22.331Z,99234.34
2022-08-27T12:19:57.678Z,99235.41
2022-08-27T12:22:59.754Z,99221.34
2022-08-27T12:25:27.884Z,99222.00
2022-08-27T12:27:57.478Z,99228.63
2022-08-27T12:30:31.237Z,99224.19
2022-08-27T12:32:59.621Z,99215.41
2022-08-27T12:35:30.813Z,99211.09
2022-08-27T12:38:08.499Z,99224.25
2022-08-27T12:40:40.344Z,99220.38
2022-08-27T12:43:09.113Z,99205.13
2022-08-27T12:45:44.500Z,99208.69
2022-08-27T12:48:12.615Z,99214.31
2022-08-27T12:50:40.817Z,99212.94
2022-08-27T12:53:36.374Z,99213.22
2022-08-27T12:56:13.431Z,99198.13
2022-08-27T12:58:45.621Z,99207.84
2022-08-27T13:01:26.740Z,99209.16
2022-08-27T13:03:55.354Z,99205.97
2022-08-27T13:06:24.372Z,99196.84
2022-08-27T13:08:54.636Z,99195.38
2022-08-27T13:11:25.272Z,99189.03
2022-08-27T13:13:53.382Z,99184.13
2022-08-27T13:16:23.045Z,99187.38
2022-08-27T13:18:51.146Z,99174.50
2022-08-27T13:21:21.496Z,99180.13
2022-08-27T13:23:54.099Z,99192.44
2022-08-27T13:26:23.063Z,99188.53
2022-08-27T13:28:51.808Z,99181.88
2022-08-27T13:31:22.771Z,99176.16
2022-08-27T13:33:50.920Z,99186.88
2022-08-27T13:36:27.763Z,99184.81
2022-08-27T13:39:02.173Z,99181.56
2022-08-27T13:41:31.816Z,99182.66
2022-08-27T13:43:59.822Z,99179.41
2022-08-27T13:46:31.015Z,99177.34
2022-08-27T13:48:59.872Z,99172.47
2022-08-27T13:51:29.567Z,99173.19
2022-08-27T13:54:15.431Z,99171.72
2022-08-27T13:56:57.603Z,99170.38
2022-08-27T13:59:30.487Z,99169.38
2022-08-27T14:02:02.015Z,99162.56
2022-08-27T14:04:38.516Z,99172.47
2022-08-27T14:07:12.953Z,99165.28
2022-08-27T14:09:50.010Z,99163.53
2022-08-27T14:12:32.785Z,99163.19
2022-08-27T14:15:01.955Z,99163.91
2022-08-27T14:17:38.225Z,99167.06
2022-08-27T14:20:07.305Z,99162.28
2022-08-27T14:22:37.400Z,99173.00
2022-08-27T14:25:06.571Z,99174.03
2022-08-27T14:27:36.297Z,99172.06
2022-08-27T14:30:04.786Z,99169.97
2022-08-27T14:32:34.177Z,99177.66
2022-08-27T14:35:02.210Z,99178.34
2022-08-27T14:37:33.020Z,99175.34
2022-08-27T14:40:01.067Z,99163.94
2022-08-27T14:42:29.137Z,99163.25
2022-08-27T14:44:57.386Z,99164.66
2022-08-27T14:47:31.118Z,99172.78
2022-08-27T14:50:02.767Z,99170.91
2022-08-27T14:52:30.800Z,99172.06
2022-08-27T14:54:58.792Z,99162.03
2022-08-27T14:57:26.892Z,99171.81
2022-08-27T14:59:54.892Z,99169.00
2022-08-27T15:02:23.318Z,99165.97
2022-08-27T15:04:51.393Z,99166.88
2022-08-27T15:07:22.736Z,99173.34
2022-08-27T15:09:51.579Z,99176.69
2022-08-27T15:12:26.042Z,99170.06
2022-08-27T15:14:54.783Z,99177.13
2022-08-27T15:17:35.171Z,99172.59
2022-08-27T15:20:04.460Z,99172.88
2022-08-27T15:22:34.282Z,99172.06
2022-08-27T15:25:02.986Z,99170.13
2022-08-27T15:27:38.669Z,99175.72
2022-08-27T15:30:07.577Z,99181.97
2022-08-27T15:32:36.782Z,99176.28
2022-08-27T15:35:08.031Z,99179.69
2022-08-27T15:37:37.429Z,99174.91
2022-08-27T15:40:06.373Z,99187.63
2022-08-27T15:42:34.402Z,99181.31
2022-08-27T15:45:02.416Z,99185.09
2022-08-27T15:47:30.426Z,99184.16
2022-08-27T15:49:58.722Z,99187.41
2022-08-27T15:52:36.412Z,99186.47
2022-08-27T15:55:14.223Z,99178.66
2022-08-27T15:57:42.260Z,99176.88
2022-08-27T16:00:11.660Z,99178.91
2022-08-27T16:02:39.871Z,99180.22
2022-08-27T16:05:09.587Z,99176.22
2022-08-27T16:07:37.585Z,99181.78
2022-08-27T16:10:06.707Z,99183.44
2022-08-27T16:12:36.258Z,99188.53
2022-08-27T16:15:05.886Z,99183.34
2022-08-27T16:17:33.919Z,99191.03
2022-08-27T16:20:01.940Z,99192.88
2022-08-27T16:22:30.086Z,99185.56
2022-08-27T16:24:58.099Z,99191.44
2022-08-27T16:27:26.216Z,99199.59
2022-08-27T16:29:55.713Z,99196.34
2022-08-27T16:32:25.916Z,99200.13
2022-08-27T16:34:55.958Z,99197.16
2022-08-27T16:37:24.408Z,99198.13
2022-08-27T16:39:52.441Z,99201.53
2022-08-27T16:42:20.752Z,99197.75
2022-08-27T16:44:48.799Z,99199.56
2022-08-27T16:47:18.179Z,99206.97
2022-08-27T16:50:03.457Z,99203.81
2022-08-27T16:52:31.485Z,99200.78
2022-08-27T16:55:00.254Z,99200.09
2022-08-27T16:57:28.420Z,99199.97
2022-08-27T16:59:56.431Z,99197.09
2022-08-27T17:02:30.769Z,99197.47
2022-08-27T17:05:07.312Z,99208.41
2022-08-27T17:07:48.963Z,99207.16
2022-08-27T17:10:17.767Z,99205.22
2022-08-27T17:12:46.309Z,99207.72
2022-08-27T17:15:14.963Z,99212.97
2022-08-27T17:17:44.425Z,99217.66
2022-08-27T17:20:12.923Z,99216.13
2022-08-27T17:22:40.892Z,99217.81
2022-08-27T17:25:09.670Z,99224.13
2022-08-27T17:27:37.675Z,99224.88
2022-08-27T17:30:06.848Z,99229.59
2022-08-27T17:32:37.302Z,99230.38
2022-08-27T17:35:07.523Z,99230.41
2022-08-27T17:37:35.728Z,99229.00
2022-08-27T17:40:04.287Z,99241.06
2022-08-27T17:42:32.406Z,99245.03
2022-08-27T17:45:00.515Z,99246.84
2022-08-27T17:47:29.936Z,99245.34
2022-08-27T17:49:58.495Z,99251.22
2022-08-27T17:52:27.904Z,99256.06
2022-08-27T17:54:56.770Z,99261.66
2022-08-27T17:57:25.975Z,99259.56
2022-08-27T17:59:54.516Z,99272.91
2022-08-27T18:02:24.888Z,99271.06
2022-08-27T18:04:52.919Z,99271.44
2022-08-27T18:07:20.986Z,99268.72
2022-08-27T18:09:50.535Z,99269.38
2022-08-27T18:12:20.369Z,99275.53
2022-08-27T18:14:49.912Z,99280.28
2022-08-27T18:17:17.938Z,99281.13
2022-08-27T18:19:46.197Z,99281.75
2022-08-27T18:22:18.657Z,99291.19
2022-08-27T18:24:46.688Z,99286.84
2022-08-27T18:27:16.022Z,99288.53
2022-08-27T18:29:44.008Z,99288.59
2022-08-27T18:32:12.449Z,99293.28
2022-08-27T18:34:40.801Z,99299.66
2022-08-27T18:37:08.921Z,99301.34
2022-08-27T18:39:39.571Z,99304.16
2022-08-27T18:42:07.790Z,99307.19
2022-08-27T18:44:38.573Z,99303.06
2022-08-27T18:47:06.860Z,99304.19
2022-08-27T18:49:34.826Z,99304.19
2022-08-27T18:52:02.859Z,99304.25
2022-08-27T18:54:30.850Z,99308.66
2022-08-27T18:56:58.854Z,99305.38
2022-08-27T18:59:27.464Z,99312.28
2022-08-27T19:01:57.190Z,99304.59
2022-08-27T19:04:25.666Z,99315.88
2022-08-27T19:06:53.621Z,99311.50
2022-08-27T19:09:21.653Z,99313.72
2022-08-27T19:11:51.584Z,99318.13
2022-08-27T19:14:19.616Z,99316.25
2022-08-27T19:16:48.533Z,99323.94
2022-08-27T19:19:17.966Z,99332.47
2022-08-27T19:21:51.162Z,99331.41
2022-08-27T19:24:19.733Z,99344.59
2022-08-27T19:26:47.828Z,99334.19
2022-08-27T19:29:15.856Z,99340.25
2022-08-27T19:31:43.881Z,99332.53
2022-08-27T19:34:11.901Z,99342.44
2022-08-27T19:36:42.706Z,99344.13
2022-08-27T19:39:11.415Z,99337.22
2022-08-27T19:41:39.483Z,99343.81
2022-08-27T19:44:07.492Z,99338.63
2022-08-27T19:46:36.772Z,99340.28
2022-08-27T19:49:04.867Z,99341.91
2022-08-27T19:51:32.994Z,99349.03
2022-08-27T19:54:02.356Z,99342.47
2022-08-27T19:56:32.727Z,99345.78
2022-08-27T19:59:10.871Z,99356.75
2022-08-27T20:01:41.774Z,99346.31
2022-08-27T20:04:09.820Z,99356.47
2022-08-27T20:06:37.949Z,99348.25
2022-08-27T20:09:09.850Z,99356.75
2022-08-27T20:11:37.846Z,99352.91
2022-08-27T20:14:05.845Z,99358.41
2022-08-27T20:16:38.332Z,99353.47
2022-08-27T20:19:06.810Z,99357.28
2022-08-27T20:21:34.811Z,99357.84
2022-08-27T20:24:03.025Z,99364.97
2022-08-27T20:26:33.074Z,99356.19
2022-08-27T20:29:01.503Z,99358.97
2022-08-27T20:31:30.387Z,99360.03
2022-08-27T20:33:58.500Z,99363.88
2022-08-27T20:36:28.409Z,99359.47
2022-08-27T20:38:56.502Z,99361.41
2022-08-27T20:41:24.573Z,99368.28
2022-08-27T20:43:53.975Z,99364.38
2022-08-27T20:46:22.995Z,99373.69
2022-08-27T20:48:51.033Z,99371.53
2022-08-27T20:51:19.046Z,99377.03
2022-08-27T20:53:47.041Z,99375.94
2022-08-27T20:56:15.167Z,99367.13
2022-08-27T20:59:00.391Z,99366.06
2022-08-27T21:01:29.865Z,99366.59
2022-08-27T21:03:58.101Z,99360.00
2022-08-27T21:06:26.650Z,99364.41
2022-08-27T21:08:54.747Z,99357.00
2022-08-27T21:11:22.780Z,99363.63
2022-08-27T21:13:56.141Z,99360.59
2022-08-27T21:16:25.164Z,99370.50
2022-08-27T21:18:55.701Z,99361.69
2022-08-27T21:21:23.764Z,99360.59
2022-08-27T21:23:51.864Z,99358.69
2022-08-27T21:26:22.193Z,99370.75
2022-08-27T21:28:50.207Z,99376.50
2022-08-27T21:31:23.992Z,99373.78
2022-08-27T21:33:52.045Z,99372.38
2022-08-27T21:36:21.531Z,99369.66
2022-08-27T21:38:49.516Z,99372.13
2022-08-27T21:41:17.521Z,99379.84
2022-08-27T21:43:45.535Z,99383.41
2022-08-27T21:46:13.579Z,99377.66
2022-08-27T21:48:41.626Z,99382.63
2022-08-27T21:51:10.027Z,99379.09
2022-08-27T21:53:39.413Z,99376.06
2022-08-27T21:56:07.685Z,99374.66
2022-08-27T21:58:35.760Z,99382.59
2022-08-27T22:01:05.506Z,99379.84
2022-08-27T22:03:33.878Z,99375.97
2022-08-27T22:06:01.856Z,99386.94
2022-08-27T22:08:29.898Z,99377.59
2022-08-27T22:10:59.463Z,99374.03
2022-08-27T22:13:27.470Z,99374.28
2022-08-27T22:15:55.522Z,99366.53
2022-08-27T22:18:23.909Z,99364.38
2022-08-27T22:20:52.159Z,99361.59
2022-08-27T22:23:20.169Z,99364.63
2022-08-27T22:25:48.968Z,99360.53
2022-08-27T22:28:18.444Z,99359.72
2022-08-27T22:30:46.770Z,99357.53
2022-08-27T22:33:14.921Z,99361.66
2022-08-27T22:35:42.995Z,99362.19
2022-08-27T22:38:11.106Z,99364.63
2022-08-27T22:40:39.405Z,99364.91
2022-08-27T22:43:07.447Z,99358.81
2022-08-27T22:45:36.819Z,99353.81
2022-08-27T22:48:05.190Z,99357.63
2022-08-27T22:50:33.306Z,99355.34
2022-08-27T22:53:01.323Z,99359.38
2022-08-27T22:55:29.393Z,99354.94
2022-08-27T22:57:57.453Z,99362.31
2022-08-27T23:00:26.582Z,99366.66
2022-08-27T23:02:55.962Z,99362.78
2022-08-27T23:05:24.650Z,99358.44
2022-08-27T23:07:54.890Z,99359.50
2022-08-27T23:10:24.191Z,99368.25
2022-08-27T23:12:53.678Z,99370.41
2022-08-27T23:15:22.794Z,99364.94
2022-08-27T23:17:50.841Z,99365.50
2022-08-27T23:20:21.882Z,99364.94
2022-08-27T23:22:49.994Z,99364.94
2022-08-27T23:25:35.588Z,99367.66
2022-08-27T23:28:06.444Z,99367.06
2022-08-27T23:30:34.941Z,99364.25
2022-08-27T23:33:02.962Z,99365.59
2022-08-27T23:35:32.334Z,99365.88
2022-08-27T23:38:00.395Z,99359.03
2022-08-27T23:40:28.528Z,99359.84
2022-08-27T23:42:56.651Z,99372.16
2022-08-27T23:45:25.944Z,99370.56
2022-08-27T23:47:55.099Z,99366.44
2022-08-27T23:50:26.395Z,99364.78
2022-08-27T23:53:03.852Z,99365.31
2022-08-27T23:55:32.469Z,99374.63
2022-08-27T23:58:01.015Z,99368.00
